sensor_id;sensor_type;location;lat;lon;timestamp;P1;durP1;ratioP1;P2;durP2;ratioP2
61150;SDS011;47029;50.994;2.876;2022-12-13T00:00:31;33.17;;;15.52;;
61150;SDS011;47029;50.994;2.876;2022-12-13T00:02:57;34.90;;;16.92;;
61150;SDS011;47029;50.994;2.876;2022-12-13T00:05:24;30.92;;;14.30;;
61150;SDS011;47029;50.994;2.876;2022-12-13T00:07:51;37.38;;;17.17;;
61150;SDS011;47029;50.994;2.876;2022-12-13T00:10:17;35.47;;;15.48;;
61150;SDS011;47029;50.994;2.876;2022-12-13T00:12:43;36.45;;;17.60;;
61150;SDS011;47029;50.994;2.876;2022-12-13T00:15:10;42.13;;;17.98;;
61150;SDS011;47029;50.994;2.876;2022-12-13T00:17:36;40.47;;;18.37;;
61150;SDS011;47029;50.994;2.876;2022-12-13T00:20:03;39.50;;;16.90;;
61150;SDS011;47029;50.994;2.876;2022-12-13T00:22:29;45.08;;;17.48;;
61150;SDS011;47029;50.994;2.876;2022-12-13T00:24:55;38.67;;;17.00;;
61150;SDS011;47029;50.994;2.876;2022-12-13T00:27:21;32.90;;;16.73;;
61150;SDS011;47029;50.994;2.876;2022-12-13T00:29:48;38.05;;;17.12;;
61150;SDS011;47029;50.994;2.876;2022-12-13T00:32:17;35.28;;;16.67;;
61150;SDS011;47029;50.994;2.876;2022-12-13T00:34:43;36.90;;;16.70;;
61150;SDS011;47029;50.994;2.876;2022-12-13T00:37:10;44.22;;;17.98;;
61150;SDS011;47029;50.994;2.876;2022-12-13T00:39:36;38.85;;;16.77;;
61150;SDS011;47029;50.994;2.876;2022-12-13T00:42:03;40.20;;;17.10;;
61150;SDS011;47029;50.994;2.876;2022-12-13T00:44:29;40.15;;;18.35;;
61150;SDS011;47029;50.994;2.876;2022-12-13T00:46:55;34.60;;;16.90;;
61150;SDS011;47029;50.994;2.876;2022-12-13T00:49:21;36.53;;;16.42;;
61150;SDS011;47029;50.994;2.876;2022-12-13T00:51:48;38.33;;;16.12;;
61150;SDS011;47029;50.994;2.876;2022-12-13T00:54:14;40.05;;;17.27;;
61150;SDS011;47029;50.994;2.876;2022-12-13T00:56:41;35.67;;;16.48;;
61150;SDS011;47029;50.994;2.876;2022-12-13T00:59:08;35.63;;;17.30;;
61150;SDS011;47029;50.994;2.876;2022-12-13T01:01:38;36.28;;;16.90;;
61150;SDS011;47029;50.994;2.876;2022-12-13T01:04:04;36.95;;;15.85;;
61150;SDS011;47029;50.994;2.876;2022-12-13T01:06:33;34.58;;;16.12;;
61150;SDS011;47029;50.994;2.876;2022-12-13T01:09:00;35.10;;;16.87;;
61150;SDS011;47029;50.994;2.876;2022-12-13T01:11:26;34.00;;;16.70;;
61150;SDS011;47029;50.994;2.876;2022-12-13T01:13:52;32.70;;;16.50;;
61150;SDS011;47029;50.994;2.876;2022-12-13T01:16:18;33.42;;;16.87;;
61150;SDS011;47029;50.994;2.876;2022-12-13T01:18:44;32.08;;;14.98;;
61150;SDS011;47029;50.994;2.876;2022-12-13T01:21:18;32.38;;;15.57;;
61150;SDS011;47029;50.994;2.876;2022-12-13T01:23:47;31.80;;;15.32;;
61150;SDS011;47029;50.994;2.876;2022-12-13T01:26:15;39.45;;;16.48;;
61150;SDS011;47029;50.994;2.876;2022-12-13T01:28:44;37.15;;;15.45;;
61150;SDS011;47029;50.994;2.876;2022-12-13T01:31:12;36.45;;;17.02;;
61150;SDS011;47029;50.994;2.876;2022-12-13T01:33:40;32.38;;;15.93;;
61150;SDS011;47029;50.994;2.876;2022-12-13T01:36:09;38.15;;;16.25;;
61150;SDS011;47029;50.994;2.876;2022-12-13T01:38:38;34.53;;;16.37;;
61150;SDS011;47029;50.994;2.876;2022-12-13T01:41:04;33.08;;;16.12;;
61150;SDS011;47029;50.994;2.876;2022-12-13T01:46:07;37.85;;;15.90;;
61150;SDS011;47029;50.994;2.876;2022-12-13T01:48:35;37.70;;;16.77;;
61150;SDS011;47029;50.994;2.876;2022-12-13T01:51:06;35.50;;;15.98;;
61150;SDS011;47029;50.994;2.876;2022-12-13T01:53:35;40.42;;;17.30;;
61150;SDS011;47029;50.994;2.876;2022-12-13T01:56:08;36.08;;;15.88;;
61150;SDS011;47029;50.994;2.876;2022-12-13T01:58:38;32.60;;;15.73;;
61150;SDS011;47029;50.994;2.876;2022-12-13T02:01:06;35.47;;;16.65;;
61150;SDS011;47029;50.994;2.876;2022-12-13T02:03:32;37.10;;;16.30;;
61150;SDS011;47029;50.994;2.876;2022-12-13T02:08:51;36.65;;;16.17;;
61150;SDS011;47029;50.994;2.876;2022-12-13T02:11:17;30.77;;;15.25;;
61150;SDS011;47029;50.994;2.876;2022-12-13T02:13:44;36.47;;;16.60;;
61150;SDS011;47029;50.994;2.876;2022-12-13T02:16:19;34.28;;;16.25;;
61150;SDS011;47029;50.994;2.876;2022-12-13T02:18:55;36.30;;;15.60;;
61150;SDS011;47029;50.994;2.876;2022-12-13T02:21:49;34.92;;;16.23;;
61150;SDS011;47029;50.994;2.876;2022-12-13T02:27:18;38.65;;;15.95;;
61150;SDS011;47029;50.994;2.876;2022-12-13T02:35:22;35.35;;;16.40;;
61150;SDS011;47029;50.994;2.876;2022-12-13T02:37:58;36.38;;;16.05;;
61150;SDS011;47029;50.994;2.876;2022-12-13T02:40:44;36.35;;;16.25;;
61150;SDS011;47029;50.994;2.876;2022-12-13T02:45:49;38.78;;;15.60;;
61150;SDS011;47029;50.994;2.876;2022-12-13T02:48:20;34.28;;;17.10;;
61150;SDS011;47029;50.994;2.876;2022-12-13T02:50:54;36.85;;;16.50;;
61150;SDS011;47029;50.994;2.876;2022-12-13T02:53:21;36.42;;;15.10;;
61150;SDS011;47029;50.994;2.876;2022-12-13T02:55:48;36.33;;;15.88;;
61150;SDS011;47029;50.994;2.876;2022-12-13T02:58:15;37.80;;;15.85;;
61150;SDS011;47029;50.994;2.876;2022-12-13T03:00:59;31.80;;;15.32;;
61150;SDS011;47029;50.994;2.876;2022-12-13T03:03:41;39.38;;;16.20;;
61150;SDS011;47029;50.994;2.876;2022-12-13T03:17:50;35.95;;;14.65;;
61150;SDS011;47029;50.994;2.876;2022-12-13T03:20:24;35.17;;;14.63;;
61150;SDS011;47029;50.994;2.876;2022-12-13T03:22:53;35.38;;;15.50;;
61150;SDS011;47029;50.994;2.876;2022-12-13T03:25:20;34.70;;;14.57;;
61150;SDS011;47029;50.994;2.876;2022-12-13T03:27:48;34.95;;;16.02;;
61150;SDS011;47029;50.994;2.876;2022-12-13T03:30:14;37.85;;;16.52;;
61150;SDS011;47029;50.994;2.876;2022-12-13T03:32:40;37.05;;;16.02;;
61150;SDS011;47029;50.994;2.876;2022-12-13T03:35:11;38.58;;;16.25;;
61150;SDS011;47029;50.994;2.876;2022-12-13T03:37:40;30.35;;;14.90;;
61150;SDS011;47029;50.994;2.876;2022-12-13T03:40:07;33.45;;;14.93;;
61150;SDS011;47029;50.994;2.876;2022-12-13T03:42:33;34.20;;;15.85;;
61150;SDS011;47029;50.994;2.876;2022-12-13T03:45:00;39.70;;;15.65;;
61150;SDS011;47029;50.994;2.876;2022-12-13T03:47:26;32.92;;;15.32;;
61150;SDS011;47029;50.994;2.876;2022-12-13T03:49:53;33.22;;;14.73;;
61150;SDS011;47029;50.994;2.876;2022-12-13T03:52:20;39.30;;;15.77;;
61150;SDS011;47029;50.994;2.876;2022-12-13T03:54:46;40.05;;;14.55;;
61150;SDS011;47029;50.994;2.876;2022-12-13T03:57:13;35.70;;;15.90;;
61150;SDS011;47029;50.994;2.876;2022-12-13T03:59:42;31.02;;;14.60;;
61150;SDS011;47029;50.994;2.876;2022-12-13T04:02:08;33.60;;;16.15;;
61150;SDS011;47029;50.994;2.876;2022-12-13T04:04:34;32.63;;;15.70;;
61150;SDS011;47029;50.994;2.876;2022-12-13T04:07:01;37.47;;;15.85;;
61150;SDS011;47029;50.994;2.876;2022-12-13T04:09:27;35.50;;;14.43;;
61150;SDS011;47029;50.994;2.876;2022-12-13T04:11:56;34.05;;;14.77;;
61150;SDS011;47029;50.994;2.876;2022-12-13T04:14:41;34.53;;;15.43;;
61150;SDS011;47029;50.994;2.876;2022-12-13T04:17:06;32.55;;;15.18;;
61150;SDS011;47029;50.994;2.876;2022-12-13T04:19:35;35.85;;;15.75;;
61150;SDS011;47029;50.994;2.876;2022-12-13T04:22:01;33.08;;;15.02;;
61150;SDS011;47029;50.994;2.876;2022-12-13T04:24:28;31.30;;;14.85;;
61150;SDS011;47029;50.994;2.876;2022-12-13T04:29:46;32.53;;;14.27;;
61150;SDS011;47029;50.994;2.876;2022-12-13T04:32:30;33.55;;;14.80;;
61150;SDS011;47029;50.994;2.876;2022-12-13T04:35:09;32.63;;;14.35;;
61150;SDS011;47029;50.994;2.876;2022-12-13T04:37:37;29.85;;;13.88;;
61150;SDS011;47029;50.994;2.876;2022-12-13T04:40:16;35.45;;;14.82;;
61150;SDS011;47029;50.994;2.876;2022-12-13T04:43:12;38.00;;;14.50;;
61150;SDS011;47029;50.994;2.876;2022-12-13T04:46:13;35.92;;;15.50;;
61150;SDS011;47029;50.994;2.876;2022-12-13T04:55:06;38.25;;;15.38;;
61150;SDS011;47029;50.994;2.876;2022-12-13T04:57:37;35.22;;;14.60;;
61150;SDS011;47029;50.994;2.876;2022-12-13T05:00:16;29.95;;;14.07;;
61150;SDS011;47029;50.994;2.876;2022-12-13T05:03:00;32.67;;;14.07;;
61150;SDS011;47029;50.994;2.876;2022-12-13T05:12:12;33.70;;;13.98;;
61150;SDS011;47029;50.994;2.876;2022-12-13T05:15:22;30.75;;;13.85;;
61150;SDS011;47029;50.994;2.876;2022-12-13T05:17:49;32.63;;;13.55;;
61150;SDS011;47029;50.994;2.876;2022-12-13T05:20:31;29.67;;;13.95;;
61150;SDS011;47029;50.994;2.876;2022-12-13T05:23:16;32.80;;;14.02;;
61150;SDS011;47029;50.994;2.876;2022-12-13T05:26:00;35.90;;;14.25;;
61150;SDS011;47029;50.994;2.876;2022-12-13T05:28:43;29.73;;;13.98;;
61150;SDS011;47029;50.994;2.876;2022-12-13T05:37:22;30.25;;;13.00;;
61150;SDS011;47029;50.994;2.876;2022-12-13T05:43:19;28.42;;;13.18;;
61150;SDS011;47029;50.994;2.876;2022-12-13T05:46:32;34.13;;;14.38;;
61150;SDS011;47029;50.994;2.876;2022-12-13T05:52:37;32.20;;;13.77;;
61150;SDS011;47029;50.994;2.876;2022-12-13T05:55:39;33.70;;;13.88;;
61150;SDS011;47029;50.994;2.876;2022-12-13T05:58:15;28.55;;;13.02;;
61150;SDS011;47029;50.994;2.876;2022-12-13T06:01:07;31.90;;;13.00;;
61150;SDS011;47029;50.994;2.876;2022-12-13T06:03:47;33.15;;;13.73;;
61150;SDS011;47029;50.994;2.876;2022-12-13T06:06:32;31.27;;;14.00;;
61150;SDS011;47029;50.994;2.876;2022-12-13T06:08:58;30.45;;;14.38;;
61150;SDS011;47029;50.994;2.876;2022-12-13T06:11:50;28.15;;;13.43;;
61150;SDS011;47029;50.994;2.876;2022-12-13T06:14:18;31.70;;;13.57;;
61150;SDS011;47029;50.994;2.876;2022-12-13T06:16:57;27.42;;;13.55;;
61150;SDS011;47029;50.994;2.876;2022-12-13T06:19:34;30.00;;;13.55;;
61150;SDS011;47029;50.994;2.876;2022-12-13T06:22:21;32.15;;;14.18;;
61150;SDS011;47029;50.994;2.876;2022-12-13T06:24:47;31.02;;;14.13;;
61150;SDS011;47029;50.994;2.876;2022-12-13T06:27:33;29.63;;;14.25;;
61150;SDS011;47029;50.994;2.876;2022-12-13T06:32:50;29.98;;;13.23;;
61150;SDS011;47029;50.994;2.876;2022-12-13T06:35:45;32.72;;;13.75;;
61150;SDS011;47029;50.994;2.876;2022-12-13T06:41:05;32.30;;;14.13;;
61150;SDS011;47029;50.994;2.876;2022-12-13T06:43:45;29.33;;;13.18;;
61150;SDS011;47029;50.994;2.876;2022-12-13T06:46:24;34.30;;;14.05;;
61150;SDS011;47029;50.994;2.876;2022-12-13T06:52:03;34.08;;;14.80;;
61150;SDS011;47029;50.994;2.876;2022-12-13T06:54:41;29.80;;;14.13;;
61150;SDS011;47029;50.994;2.876;2022-12-13T06:57:19;29.33;;;13.43;;
61150;SDS011;47029;50.994;2.876;2022-12-13T06:59:45;32.17;;;14.50;;
61150;SDS011;47029;50.994;2.876;2022-12-13T07:02:27;33.55;;;15.60;;
61150;SDS011;47029;50.994;2.876;2022-12-13T07:05:05;31.20;;;14.25;;
61150;SDS011;47029;50.994;2.876;2022-12-13T07:10:23;30.62;;;14.55;;
61150;SDS011;47029;50.994;2.876;2022-12-13T07:13:11;33.78;;;14.68;;
61150;SDS011;47029;50.994;2.876;2022-12-13T07:15:56;35.65;;;15.65;;
61150;SDS011;47029;50.994;2.876;2022-12-13T07:18:38;36.45;;;16.10;;
61150;SDS011;47029;50.994;2.876;2022-12-13T07:21:24;35.55;;;15.00;;
61150;SDS011;47029;50.994;2.876;2022-12-13T07:26:47;32.83;;;16.67;;
61150;SDS011;47029;50.994;2.876;2022-12-13T07:29:42;33.88;;;15.90;;
61150;SDS011;47029;50.994;2.876;2022-12-13T07:32:36;32.05;;;15.18;;
61150;SDS011;47029;50.994;2.876;2022-12-13T07:38:41;30.77;;;14.70;;
61150;SDS011;47029;50.994;2.876;2022-12-13T07:41:16;33.08;;;15.40;;
61150;SDS011;47029;50.994;2.876;2022-12-13T07:44:03;33.85;;;15.65;;
61150;SDS011;47029;50.994;2.876;2022-12-13T07:49:45;31.85;;;15.02;;
61150;SDS011;47029;50.994;2.876;2022-12-13T07:52:53;33.33;;;15.10;;
61150;SDS011;47029;50.994;2.876;2022-12-13T07:55:41;32.25;;;14.27;;
61150;SDS011;47029;50.994;2.876;2022-12-13T07:58:13;35.25;;;15.48;;
61150;SDS011;47029;50.994;2.876;2022-12-13T08:00:48;36.55;;;15.98;;
61150;SDS011;47029;50.994;2.876;2022-12-13T08:03:40;31.40;;;15.77;;
61150;SDS011;47029;50.994;2.876;2022-12-13T08:12:46;33.53;;;16.45;;
61150;SDS011;47029;50.994;2.876;2022-12-13T08:15:42;28.65;;;14.77;;
61150;SDS011;47029;50.994;2.876;2022-12-13T08:18:26;34.60;;;15.85;;
61150;SDS011;47029;50.994;2.876;2022-12-13T08:24:37;35.78;;;15.98;;
61150;SDS011;47029;50.994;2.876;2022-12-13T08:27:10;32.88;;;16.20;;
61150;SDS011;47029;50.994;2.876;2022-12-13T08:30:27;37.38;;;16.83;;
61150;SDS011;47029;50.994;2.876;2022-12-13T08:33:36;32.15;;;15.48;;
61150;SDS011;47029;50.994;2.876;2022-12-13T08:36:13;31.02;;;15.10;;
61150;SDS011;47029;50.994;2.876;2022-12-13T08:39:24;35.00;;;14.77;;
61150;SDS011;47029;50.994;2.876;2022-12-13T08:45:28;32.30;;;14.05;;
61150;SDS011;47029;50.994;2.876;2022-12-13T08:48:22;31.98;;;15.02;;
61150;SDS011;47029;50.994;2.876;2022-12-13T08:51:18;36.20;;;15.40;;
61150;SDS011;47029;50.994;2.876;2022-12-13T08:54:02;30.25;;;14.73;;
61150;SDS011;47029;50.994;2.876;2022-12-13T08:56:50;31.50;;;13.95;;
61150;SDS011;47029;50.994;2.876;2022-12-13T08:59:56;31.27;;;14.38;;
61150;SDS011;47029;50.994;2.876;2022-12-13T09:03:04;28.12;;;14.07;;
61150;SDS011;47029;50.994;2.876;2022-12-13T09:05:29;30.48;;;14.60;;
61150;SDS011;47029;50.994;2.876;2022-12-13T09:08:06;31.40;;;14.27;;
61150;SDS011;47029;50.994;2.876;2022-12-13T09:11:02;31.55;;;15.02;;
61150;SDS011;47029;50.994;2.876;2022-12-13T09:17:04;24.92;;;13.25;;
61150;SDS011;47029;50.994;2.876;2022-12-13T09:23:32;33.03;;;15.23;;
61150;SDS011;47029;50.994;2.876;2022-12-13T09:32:24;32.88;;;16.30;;
61150;SDS011;47029;50.994;2.876;2022-12-13T09:35:10;36.10;;;16.37;;
61150;SDS011;47029;50.994;2.876;2022-12-13T09:37:54;32.78;;;15.02;;
61150;SDS011;47029;50.994;2.876;2022-12-13T09:44:02;27.48;;;13.93;;
61150;SDS011;47029;50.994;2.876;2022-12-13T09:46:44;31.73;;;13.90;;
61150;SDS011;47029;50.994;2.876;2022-12-13T09:49:42;30.30;;;14.77;;
61150;SDS011;47029;50.994;2.876;2022-12-13T09:58:40;33.72;;;15.25;;
61150;SDS011;47029;50.994;2.876;2022-12-13T10:01:16;29.60;;;14.70;;
61150;SDS011;47029;50.994;2.876;2022-12-13T10:04:06;33.33;;;14.05;;
61150;SDS011;47029;50.994;2.876;2022-12-13T10:09:48;30.33;;;15.07;;
61150;SDS011;47029;50.994;2.876;2022-12-13T10:12:32;30.42;;;14.82;;
61150;SDS011;47029;50.994;2.876;2022-12-13T10:18:53;31.58;;;15.15;;
61150;SDS011;47029;50.994;2.876;2022-12-13T10:28:04;31.87;;;15.85;;
61150;SDS011;47029;50.994;2.876;2022-12-13T10:39:34;32.38;;;14.98;;
61150;SDS011;47029;50.994;2.876;2022-12-13T10:42:35;30.88;;;15.20;;
61150;SDS011;47029;50.994;2.876;2022-12-13T10:45:31;31.67;;;15.65;;
61150;SDS011;47029;50.994;2.876;2022-12-13T10:48:16;32.55;;;15.15;;
61150;SDS011;47029;50.994;2.876;2022-12-13T10:54:35;28.48;;;13.62;;
61150;SDS011;47029;50.994;2.876;2022-12-13T11:03:54;27.40;;;12.20;;
61150;SDS011;47029;50.994;2.876;2022-12-13T11:06:57;27.98;;;12.68;;
61150;SDS011;47029;50.994;2.876;2022-12-13T11:09:54;25.33;;;12.23;;
61150;SDS011;47029;50.994;2.876;2022-12-13T11:13:17;26.67;;;13.45;;
61150;SDS011;47029;50.994;2.876;2022-12-13T11:16:04;30.55;;;13.77;;
61150;SDS011;47029;50.994;2.876;2022-12-13T11:19:21;28.60;;;13.38;;
61150;SDS011;47029;50.994;2.876;2022-12-13T11:22:19;28.73;;;13.30;;
61150;SDS011;47029;50.994;2.876;2022-12-13T11:25:42;27.55;;;12.68;;
61150;SDS011;47029;50.994;2.876;2022-12-13T11:50:24;28.60;;;13.47;;
61150;SDS011;47029;50.994;2.876;2022-12-13T11:57:05;29.75;;;12.65;;
61150;SDS011;47029;50.994;2.876;2022-12-13T12:02:38;31.90;;;13.40;;
61150;SDS011;47029;50.994;2.876;2022-12-13T12:06:03;29.40;;;12.85;;
61150;SDS011;47029;50.994;2.876;2022-12-13T12:08:58;27.02;;;12.45;;
61150;SDS011;47029;50.994;2.876;2022-12-13T12:15:25;27.83;;;13.43;;
61150;SDS011;47029;50.994;2.876;2022-12-13T12:18:32;27.87;;;11.25;;
61150;SDS011;47029;50.994;2.876;2022-12-13T12:33:55;25.37;;;12.15;;
61150;SDS011;47029;50.994;2.876;2022-12-13T12:58:55;26.77;;;12.50;;
61150;SDS011;47029;50.994;2.876;2022-12-13T13:11:20;27.40;;;13.23;;
61150;SDS011;47029;50.994;2.876;2022-12-13T13:23:12;28.62;;;13.60;;
61150;SDS011;47029;50.994;2.876;2022-12-13T13:25:42;26.77;;;13.10;;
61150;SDS011;47029;50.994;2.876;2022-12-13T13:28:43;28.25;;;13.40;;
61150;SDS011;47029;50.994;2.876;2022-12-13T14:08:32;31.30;;;13.18;;
61150;SDS011;47029;50.994;2.876;2022-12-13T14:20:31;29.25;;;14.35;;
61150;SDS011;47029;50.994;2.876;2022-12-13T14:29:36;33.28;;;14.40;;
61150;SDS011;47029;50.994;2.876;2022-12-13T14:35:59;31.10;;;13.77;;
61150;SDS011;47029;50.994;2.876;2022-12-13T14:42:01;33.90;;;14.15;;
61150;SDS011;47029;50.994;2.876;2022-12-13T14:45:02;29.50;;;13.98;;
61150;SDS011;47029;50.994;2.876;2022-12-13T14:50:48;28.05;;;13.35;;
61150;SDS011;47029;50.994;2.876;2022-12-13T14:56:11;29.60;;;13.10;;
61150;SDS011;47029;50.994;2.876;2022-12-13T14:58:56;30.73;;;13.35;;
61150;SDS011;47029;50.994;2.876;2022-12-13T15:01:37;32.45;;;13.93;;
61150;SDS011;47029;50.994;2.876;2022-12-13T15:04:41;29.10;;;14.05;;
61150;SDS011;47029;50.994;2.876;2022-12-13T15:13:57;25.08;;;13.23;;
61150;SDS011;47029;50.994;2.876;2022-12-13T15:16:39;31.25;;;14.23;;
61150;SDS011;47029;50.994;2.876;2022-12-13T15:29:17;29.75;;;12.93;;
61150;SDS011;47029;50.994;2.876;2022-12-13T15:32:10;26.25;;;12.52;;
61150;SDS011;47029;50.994;2.876;2022-12-13T15:35:12;29.30;;;12.48;;
61150;SDS011;47029;50.994;2.876;2022-12-13T15:38:11;29.98;;;13.00;;
61150;SDS011;47029;50.994;2.876;2022-12-13T15:41:00;28.73;;;13.48;;
61150;SDS011;47029;50.994;2.876;2022-12-13T15:43:31;28.00;;;12.95;;
61150;SDS011;47029;50.994;2.876;2022-12-13T15:53:26;26.10;;;11.57;;
61150;SDS011;47029;50.994;2.876;2022-12-13T15:59:30;25.20;;;12.75;;
61150;SDS011;47029;50.994;2.876;2022-12-13T16:02:45;30.00;;;14.75;;
61150;SDS011;47029;50.994;2.876;2022-12-13T16:05:33;30.17;;;13.95;;
61150;SDS011;47029;50.994;2.876;2022-12-13T16:08:36;32.90;;;15.35;;
61150;SDS011;47029;50.994;2.876;2022-12-13T16:11:24;28.42;;;14.27;;
61150;SDS011;47029;50.994;2.876;2022-12-13T16:21:08;32.30;;;14.48;;
61150;SDS011;47029;50.994;2.876;2022-12-13T16:23:53;30.93;;;14.57;;
61150;SDS011;47029;50.994;2.876;2022-12-13T16:26:26;32.83;;;16.12;;
61150;SDS011;47029;50.994;2.876;2022-12-13T16:32:13;30.50;;;14.27;;
61150;SDS011;47029;50.994;2.876;2022-12-13T16:34:56;29.85;;;13.73;;
61150;SDS011;47029;50.994;2.876;2022-12-13T16:37:51;31.27;;;13.95;;
61150;SDS011;47029;50.994;2.876;2022-12-13T16:40:54;31.33;;;14.43;;
61150;SDS011;47029;50.994;2.876;2022-12-13T16:43:39;32.92;;;13.80;;
61150;SDS011;47029;50.994;2.876;2022-12-13T16:46:53;27.40;;;12.57;;
61150;SDS011;47029;50.994;2.876;2022-12-13T16:50:08;30.62;;;13.05;;
61150;SDS011;47029;50.994;2.876;2022-12-13T16:52:52;27.05;;;12.88;;
61150;SDS011;47029;50.994;2.876;2022-12-13T16:55:38;24.98;;;12.77;;
61150;SDS011;47029;50.994;2.876;2022-12-13T16:58:09;29.00;;;13.00;;
61150;SDS011;47029;50.994;2.876;2022-12-13T17:00:50;35.60;;;14.02;;
61150;SDS011;47029;50.994;2.876;2022-12-13T17:06:56;28.80;;;13.35;;
61150;SDS011;47029;50.994;2.876;2022-12-13T17:09:22;34.42;;;13.70;;
61150;SDS011;47029;50.994;2.876;2022-12-13T17:12:15;27.83;;;12.73;;
61150;SDS011;47029;50.994;2.876;2022-12-13T17:14:53;29.33;;;12.48;;
61150;SDS011;47029;50.994;2.876;2022-12-13T17:29:26;22.77;;;10.77;;
61150;SDS011;47029;50.994;2.876;2022-12-13T17:32:26;24.25;;;10.50;;
61150;SDS011;47029;50.994;2.876;2022-12-13T17:38:47;25.70;;;12.43;;
61150;SDS011;47029;50.994;2.876;2022-12-13T17:42:02;29.45;;;11.82;;
61150;SDS011;47029;50.994;2.876;2022-12-13T17:48:19;28.98;;;12.70;;
61150;SDS011;47029;50.994;2.876;2022-12-13T17:57:58;29.10;;;13.18;;
61150;SDS011;47029;50.994;2.876;2022-12-13T18:00:56;27.10;;;12.65;;
61150;SDS011;47029;50.994;2.876;2022-12-13T18:07:11;30.58;;;12.95;;
61150;SDS011;47029;50.994;2.876;2022-12-13T18:09:47;28.42;;;12.80;;
61150;SDS011;47029;50.994;2.876;2022-12-13T18:12:36;27.08;;;12.37;;
61150;SDS011;47029;50.994;2.876;2022-12-13T18:15:24;28.58;;;12.50;;
61150;SDS011;47029;50.994;2.876;2022-12-13T18:35:12;28.80;;;11.82;;
61150;SDS011;47029;50.994;2.876;2022-12-13T18:44:52;26.98;;;12.27;;
61150;SDS011;47029;50.994;2.876;2022-12-13T18:51:16;32.83;;;13.98;;
61150;SDS011;47029;50.994;2.876;2022-12-13T18:53:58;31.50;;;13.70;;
61150;SDS011;47029;50.994;2.876;2022-12-13T18:57:09;30.42;;;13.90;;
61150;SDS011;47029;50.994;2.876;2022-12-13T19:08:54;32.95;;;13.88;;
61150;SDS011;47029;50.994;2.876;2022-12-13T19:15:10;33.30;;;15.10;;
61150;SDS011;47029;50.994;2.876;2022-12-13T19:17:59;35.60;;;13.62;;
61150;SDS011;47029;50.994;2.876;2022-12-13T19:20:40;31.73;;;14.48;;
61150;SDS011;47029;50.994;2.876;2022-12-13T19:23:34;33.58;;;13.40;;
61150;SDS011;47029;50.994;2.876;2022-12-13T19:27:18;32.40;;;12.85;;
61150;SDS011;47029;50.994;2.876;2022-12-13T19:30:15;34.72;;;14.87;;
61150;SDS011;47029;50.994;2.876;2022-12-13T20:02:47;32.10;;;13.52;;
61150;SDS011;47029;50.994;2.876;2022-12-13T20:06:04;27.33;;;12.93;;
61150;SDS011;47029;50.994;2.876;2022-12-13T20:16:19;34.78;;;16.20;;
61150;SDS011;47029;50.994;2.876;2022-12-13T20:29:16;31.37;;;13.35;;
61150;SDS011;47029;50.994;2.876;2022-12-13T20:32:07;36.38;;;15.27;;
61150;SDS011;47029;50.994;2.876;2022-12-13T20:41:58;36.30;;;14.27;;
61150;SDS011;47029;50.994;2.876;2022-12-13T20:48:03;36.45;;;14.23;;
61150;SDS011;47029;50.994;2.876;2022-12-13T21:14:13;40.08;;;16.42;;
61150;SDS011;47029;50.994;2.876;2022-12-13T21:16:51;40.65;;;15.35;;
61150;SDS011;47029;50.994;2.876;2022-12-13T21:20:11;35.05;;;14.48;;
61150;SDS011;47029;50.994;2.876;2022-12-13T21:36:43;33.22;;;15.52;;
61150;SDS011;47029;50.994;2.876;2022-12-13T21:39:41;37.85;;;17.12;;
61150;SDS011;47029;50.994;2.876;2022-12-13T21:42:52;42.53;;;17.52;;
61150;SDS011;47029;50.994;2.876;2022-12-13T21:49:11;39.97;;;17.00;;
61150;SDS011;47029;50.994;2.876;2022-12-13T21:52:22;37.45;;;17.20;;
61150;SDS011;47029;50.994;2.876;2022-12-13T21:55:33;35.83;;;16.23;;
61150;SDS011;47029;50.994;2.876;2022-12-13T21:58:10;41.17;;;16.87;;
61150;SDS011;47029;50.994;2.876;2022-12-13T22:04:52;42.33;;;18.10;;
61150;SDS011;47029;50.994;2.876;2022-12-13T22:08:25;36.90;;;16.87;;
61150;SDS011;47029;50.994;2.876;2022-12-13T22:17:56;43.80;;;17.20;;
61150;SDS011;47029;50.994;2.876;2022-12-13T22:24:00;39.88;;;16.52;;
61150;SDS011;47029;50.994;2.876;2022-12-13T22:26:57;40.00;;;16.20;;
61150;SDS011;47029;50.994;2.876;2022-12-13T22:29:46;34.08;;;15.93;;
61150;SDS011;47029;50.994;2.876;2022-12-13T22:38:04;41.08;;;16.10;;
61150;SDS011;47029;50.994;2.876;2022-12-13T22:40:46;42.72;;;18.58;;
61150;SDS011;47029;50.994;2.876;2022-12-13T22:43:45;34.50;;;15.52;;
61150;SDS011;47029;50.994;2.876;2022-12-13T22:46:43;44.50;;;18.60;;
61150;SDS011;47029;50.994;2.876;2022-12-13T22:49:27;41.95;;;16.85;;
61150;SDS011;47029;50.994;2.876;2022-12-13T22:52:06;37.20;;;17.87;;
61150;SDS011;47029;50.994;2.876;2022-12-13T22:55:19;41.83;;;18.35;;
61150;SDS011;47029;50.994;2.876;2022-12-13T22:58:14;47.33;;;18.60;;
61150;SDS011;47029;50.994;2.876;2022-12-13T23:03:45;40.03;;;17.02;;
61150;SDS011;47029;50.994;2.876;2022-12-13T23:08:45;41.42;;;16.85;;
61150;SDS011;47029;50.994;2.876;2022-12-13T23:11:16;35.80;;;16.70;;
61150;SDS011;47029;50.994;2.876;2022-12-13T23:14:11;37.83;;;17.85;;
61150;SDS011;47029;50.994;2.876;2022-12-13T23:16:46;40.95;;;17.30;;
61150;SDS011;47029;50.994;2.876;2022-12-13T23:19:17;36.65;;;16.23;;
61150;SDS011;47029;50.994;2.876;2022-12-13T23:21:43;40.00;;;17.30;;
61150;SDS011;47029;50.994;2.876;2022-12-13T23:24:23;36.28;;;17.20;;
61150;SDS011;47029;50.994;2.876;2022-12-13T23:26:51;39.63;;;18.25;;
61150;SDS011;47029;50.994;2.876;2022-12-13T23:29:23;40.38;;;16.83;;
61150;SDS011;47029;50.994;2.876;2022-12-13T23:31:53;39.20;;;17.52;;
61150;SDS011;47029;50.994;2.876;2022-12-13T23:34:19;35.15;;;16.52;;
61150;SDS011;47029;50.994;2.876;2022-12-13T23:36:50;36.25;;;15.80;;
61150;SDS011;47029;50.994;2.876;2022-12-13T23:39:23;34.30;;;16.60;;
61150;SDS011;47029;50.994;2.876;2022-12-13T23:42:28;36.25;;;15.18;;
61150;SDS011;47029;50.994;2.876;2022-12-13T23:44:56;34.83;;;16.25;;
61150;SDS011;47029;50.994;2.876;2022-12-13T23:54:03;38.42;;;16.95;;
61150;SDS011;47029;50.994;2.876;2022-12-13T23:56:40;36.00;;;15.25;;
61150;SDS011;47029;50.994;2.876;2022-12-13T23:59:10;40.67;;;16.67;;
